Time;durP1;ratioP1;P1;durP2;ratioP2;P2;SDS_P1;SDS_P2;PMS_P1;PMS_P2;Temp;Humidity;BMP_temperature;BMP_pressure;BME280_temperature;BME280_humidity;BME280_pressure;Samples;Min_cycle;Max_cycle;Signal;HPM_P1;HPM_P2
2022/12/11 00:01:57;;;;;;;29.38;17.90;;;;;;;2.31;76.26;97866.97;5106967;28;20043;-74
2022/12/11 00:04:24;;;;;;;26.33;17.92;;;;;;;2.31;76.23;97861.75;5105989;28;20215;-75
2022/12/11 00:06:51;;;;;;;27.05;18.27;;;;;;;1.54;76.21;97749.38;5107170;28;20055;-74
2022/12/11 00:09:18;;;;;;;28.58;18.10;;;;;;;2.30;76.28;97861.81;5105703;28;20039;-74
2022/12/11 00:11:45;;;;;;;26.48;17.85;;;;;;;2.29;76.07;97866.22;5105667;28;20044;-74
2022/12/11 00:14:13;;;;;;;27.85;18.08;;;;;;;2.28;76.23;97854.06;5106436;28;20063;-74
2022/12/11 00:16:40;;;;;;;26.10;16.58;;;;;;;2.28;76.23;97859.28;5106408;28;20059;-75
2022/12/11 00:19:08;;;;;;;31.55;18.65;;;;;;;2.27;76.42;97859.34;5105733;28;20039;-74
2022/12/11 00:21:35;;;;;;;28.20;16.45;;;;;;;2.28;76.33;97850.59;5106338;28;20052;-74
2022/12/11 00:24:02;;;;;;;26.70;16.05;;;;;;;1.99;76.34;97799.66;5105457;28;20085;-74
2022/12/11 00:26:29;;;;;;;26.10;17.63;;;;;;;2.23;76.23;97835.97;5106005;28;20040;-75
2022/12/11 00:28:56;;;;;;;24.23;16.05;;;;;;;1.49;76.20;97732.22;5105360;28;20044;-75
2022/12/11 00:31:24;;;;;;;28.80;18.88;;;;;;;1.73;76.03;97774.69;5106504;28;20047;-75
2022/12/11 00:33:51;;;;;;;30.27;18.42;;;;;;;2.20;76.06;97837.88;5105539;28;20035;-74
2022/12/11 00:36:21;;;;;;;26.58;17.45;;;;;;;2.17;75.98;97841.47;5105952;28;20201;-75
2022/12/11 00:38:49;;;;;;;25.85;16.30;;;;;;;2.00;76.15;97806.56;5105217;28;20040;-75
2022/12/11 00:41:18;;;;;;;29.23;17.13;;;;;;;2.16;75.78;97844.16;5106011;28;20086;-75
2022/12/11 00:43:45;;;;;;;28.15;16.95;;;;;;;1.92;75.61;97814.75;5106231;28;20047;-75
2022/12/11 00:46:12;;;;;;;27.73;18.23;;;;;;;2.12;75.40;97853.91;5105776;28;20044;-74
2022/12/11 00:48:40;;;;;;;26.65;18.10;;;;;;;2.10;75.47;97854.88;5106153;28;20087;-74
2022/12/11 00:51:09;;;;;;;26.83;18.38;;;;;;;2.11;75.33;97860.03;5104960;28;20098;-75
2022/12/11 00:53:37;;;;;;;28.20;18.35;;;;;;;2.10;75.27;97853.13;5106323;28;20055;-75
2022/12/11 00:56:10;;;;;;;27.73;18.23;;;;;;;2.10;75.08;97855.72;5105984;28;20047;-75
2022/12/11 00:58:37;;;;;;;29.80;18.48;;;;;;;2.10;75.12;97860.09;5105740;28;20052;-74
2022/12/11 01:01:08;;;;;;;23.27;16.67;;;;;;;1.94;74.65;97839.03;5105441;28;20040;-74
2022/12/11 01:03:35;;;;;;;25.02;15.73;;;;;;;1.81;74.60;97822.22;5105329;28;20234;-74
2022/12/11 01:06:02;;;;;;;26.48;17.50;;;;;;;2.02;74.53;97863.06;5105524;28;20070;-74
2022/12/11 01:08:30;;;;;;;22.05;15.40;;;;;;;1.97;74.53;97869.41;5104942;28;20046;-75
2022/12/11 01:11:05;;;;;;;23.85;17.05;;;;;;;1.93;73.88;97865.25;5105801;28;20094;-75
2022/12/11 01:13:32;;;;;;;24.85;16.42;;;;;;;1.91;74.50;97867.91;5104712;28;20127;-74
2022/12/11 01:15:59;;;;;;;25.35;15.52;;;;;;;1.90;74.25;97874.91;5105897;28;20315;-75
2022/12/11 01:18:27;;;;;;;24.40;15.68;;;;;;;0.68;74.26;97670.50;5105933;28;20051;-75
2022/12/11 01:20:54;;;;;;;24.40;15.43;;;;;;;1.89;73.98;97872.38;5104956;28;20242;-76
2022/12/11 01:23:21;;;;;;;21.85;15.00;;;;;;;1.90;74.23;97868.84;5105557;28;20168;-76
2022/12/11 01:25:47;;;;;;;25.30;16.90;;;;;;;1.89;74.25;97867.97;5104624;28;20040;-75
2022/12/11 01:28:17;;;;;;;27.02;16.95;;;;;;;1.89;74.07;97872.38;5104982;28;20060;-73
2022/12/11 01:30:44;;;;;;;21.42;15.60;;;;;;;1.89;74.02;97869.75;5105388;28;20047;-75
2022/12/11 01:33:11;;;;;;;23.63;15.23;;;;;;;1.86;74.05;97860.28;5104534;28;20207;-73
2022/12/11 01:35:39;;;;;;;22.90;15.20;;;;;;;1.85;73.88;97857.75;5105173;28;20322;-73
2022/12/11 01:38:06;;;;;;;26.88;15.45;;;;;;;1.83;73.89;97862.19;5105544;28;20303;-73
2022/12/11 01:40:32;;;;;;;22.00;14.68;;;;;;;1.84;73.66;97869.09;5105590;28;20044;-73
2022/12/11 01:42:59;;;;;;;24.17;15.52;;;;;;;1.84;73.65;97869.09;5105534;28;20043;-73
2022/12/11 01:45:32;;;;;;;22.95;15.07;;;;;;;1.82;73.00;97868.31;5104786;28;20230;-73
2022/12/11 01:48:06;;;;;;;22.70;15.50;;;;;;;1.53;72.43;97835.59;5105784;28;20070;-74
2022/12/11 01:50:37;;;;;;;21.88;15.93;;;;;;;1.75;72.94;97885.19;5105096;28;20052;-74
2022/12/11 01:53:07;;;;;;;21.52;15.13;;;;;;;1.70;72.57;97881.91;5105181;28;20196;-74
2022/12/11 01:55:35;;;;;;;24.70;16.52;;;;;;;1.71;72.51;97881.00;5104251;28;20044;-74
2022/12/11 01:58:03;;;;;;;23.13;15.70;;;;;;;1.70;72.57;97881.91;5105020;28;20040;-74
2022/12/11 02:00:31;;;;;;;20.95;14.60;;;;;;;1.69;72.49;97881.06;5104957;28;20040;-74
2022/12/11 02:02:58;;;;;;;25.10;16.15;;;;;;;1.70;72.29;97892.34;5104359;28;20051;-74
2022/12/11 02:05:24;;;;;;;23.23;16.20;;;;;;;1.68;72.07;97881.13;5105145;28;20283;-74
2022/12/11 02:07:55;;;;;;;25.17;16.38;;;;;;;1.67;72.05;97884.66;5104340;28;20062;-74
2022/12/11 02:10:26;;;;;;;22.05;15.95;;;;;;;1.65;72.00;97883.88;5104922;28;20056;-74
2022/12/11 02:12:59;;;;;;;20.88;15.25;;;;;;;1.65;71.92;97891.72;5105150;28;20056;-73
2022/12/11 02:15:35;;;;;;;22.88;15.13;;;;;;;1.40;71.22;97844.88;5104967;28;20044;-74
2022/12/11 02:18:13;;;;;;;24.45;16.00;;;;;;;1.61;71.48;97887.53;5105211;28;20295;-73
2022/12/11 02:20:47;;;;;;;22.67;14.13;;;;;;;1.59;71.69;97879.72;5107085;28;20056;-73
2022/12/11 02:23:31;;;;;;;24.63;15.95;;;;;;;1.57;71.02;97884.16;5108716;28;20035;-74
2022/12/11 02:26:12;;;;;;;24.77;15.40;;;;;;;1.56;71.52;97890.28;5108506;28;20040;-74
2022/12/11 02:28:44;;;;;;;23.90;15.02;;;;;;;1.56;71.59;97888.53;5109044;28;20043;-74
2022/12/11 02:31:16;;;;;;;22.55;16.20;;;;;;;1.58;71.27;97889.31;5108506;28;20094;-74
2022/12/11 02:33:49;;;;;;;19.88;13.98;;;;;;;1.55;71.59;97881.63;5108423;28;20043;-74
2022/12/11 02:36:18;;;;;;;22.88;13.45;;;;;;;1.56;71.48;97888.53;5108204;28;20068;-74
2022/12/11 02:38:49;;;;;;;26.77;15.93;;;;;;;1.54;71.07;97887.75;5107495;28;20093;-74
2022/12/11 02:41:18;;;;;;;23.77;15.05;;;;;;;1.54;71.18;97884.28;5108279;28;20242;-73
2022/12/11 02:43:49;;;;;;;22.58;14.65;;;;;;;1.51;70.86;97892.25;5108524;28;20300;-74
2022/12/11 02:46:18;;;;;;;21.55;14.80;;;;;;;1.53;71.16;97885.22;5108316;28;20044;-74
2022/12/11 02:48:48;;;;;;;20.58;13.43;;;;;;;1.52;71.20;97880.91;5107551;28;20097;-74
2022/12/11 02:51:16;;;;;;;23.15;14.55;;;;;;;1.54;71.23;97871.25;5107117;28;20327;-74
2022/12/11 02:53:44;;;;;;;22.98;15.80;;;;;;;1.54;71.04;97863.41;5108377;28;20066;-74
2022/12/11 02:56:13;;;;;;;19.70;13.82;;;;;;;0.92;70.98;97770.34;5107196;28;20047;-74
2022/12/11 02:58:47;;;;;;;19.98;13.50;;;;;;;1.55;70.69;97863.34;5107133;28;20032;-74
2022/12/11 03:01:14;;;;;;;20.60;14.00;;;;;;;1.55;70.45;97863.34;5108173;28;20052;-74
2022/12/11 03:03:41;;;;;;;21.90;13.07;;;;;;;0.42;70.47;97681.16;5107825;28;20285;-74
2022/12/11 03:06:11;;;;;;;16.40;11.80;;;;;;;1.51;70.38;97866.16;5108251;28;20085;-74
2022/12/11 03:08:38;;;;;;;21.25;13.70;;;;;;;1.50;70.06;97872.28;5106886;28;20048;-74
2022/12/11 03:11:05;;;;;;;19.20;12.02;;;;;;;1.46;70.32;97871.56;5107166;28;20039;-74
2022/12/11 03:13:32;;;;;;;20.10;13.73;;;;;;;1.46;69.94;97857.66;5107928;28;20214;-74
2022/12/11 03:16:10;;;;;;;19.77;13.20;;;;;;;0.85;69.24;97798.44;5107620;28;20040;-74
2022/12/11 03:18:44;;;;;;;20.00;13.07;;;;;;;1.16;69.77;97820.66;5107545;28;20040;-74
2022/12/11 03:21:18;;;;;;;19.50;12.53;;;;;;;-2.47;69.06;97228.78;5106750;28;20246;-74
2022/12/11 03:23:50;;;;;;;18.30;11.93;;;;;;;0.81;69.70;97789.03;5107561;28;20378;-74
2022/12/11 03:26:21;;;;;;;16.98;11.88;;;;;;;1.41;70.04;97872.66;5106550;28;20123;-74
2022/12/11 03:28:55;;;;;;;16.30;12.52;;;;;;;0.62;69.53;97741.16;5107470;28;20044;-74
2022/12/11 03:31:27;;;;;;;20.75;13.02;;;;;;;1.40;69.58;97869.22;5105557;28;20044;-74
2022/12/11 03:33:58;;;;;;;19.33;13.90;;;;;;;0.71;69.55;97751.19;5106404;28;20081;-74
2022/12/11 03:36:31;;;;;;;19.90;12.80;;;;;;;1.34;69.02;97859.03;5107067;28;20235;-74
2022/12/11 03:39:01;;;;;;;18.05;12.70;;;;;;;1.33;69.15;97864.31;5107550;28;20051;-74
2022/12/11 03:41:31;;;;;;;26.33;14.40;;;;;;;-0.37;69.30;97591.44;5107529;28;20052;-75
2022/12/11 03:43:59;;;;;;;16.88;12.50;;;;;;;1.32;69.60;97863.47;5106563;28;20043;-75
2022/12/11 03:46:32;;;;;;;20.20;13.73;;;;;;;1.32;69.10;97873.91;5107291;28;20040;-75
2022/12/11 03:49:02;;;;;;;18.63;13.65;;;;;;;1.31;69.28;97877.41;5107054;28;20048;-75
2022/12/11 03:51:31;;;;;;;19.55;13.38;;;;;;;1.32;69.60;97881.72;5106087;28;20036;-75
2022/12/11 03:53:58;;;;;;;19.65;12.15;;;;;;;1.31;69.68;97881.78;5106018;28;20078;-73
2022/12/11 03:56:28;;;;;;;23.00;15.18;;;;;;;1.07;69.62;97845.34;5107367;28;20040;-74
2022/12/11 03:58:55;;;;;;;19.58;13.80;;;;;;;1.30;69.51;97877.47;5107284;28;20049;-74
2022/12/11 04:01:21;;;;;;;18.50;12.70;;;;;;;1.30;69.32;97886.16;5106125;28;20044;-74
2022/12/11 04:03:49;;;;;;;18.35;13.35;;;;;;;1.30;69.35;97882.72;5107210;28;20059;-75
2022/12/11 04:06:16;;;;;;;20.33;13.40;;;;;;;1.29;69.58;97884.47;5105709;28;20296;-75
2022/12/11 04:08:43;;;;;;;19.63;12.52;;;;;;;1.31;69.25;97889.63;5105732;28;20043;-75
2022/12/11 04:16:36;;;;;;;19.60;12.27;;;;;;;1.26;69.39;97889.81;5106227;28;20040;-75
2022/12/11 04:24:33;;;;;;;17.20;11.23;;;;;;;1.01;69.65;97843.00;5106110;28;20077;-75
2022/12/11 04:27:00;;;;;;;19.73;12.70;;;;;;;1.19;69.90;97876.16;5106186;28;20044;-75
2022/12/11 04:29:27;;;;;;;16.75;12.18;;;;;;;1.16;70.12;97876.28;5088744;28;20078;-74
2022/12/11 04:31:54;;;;;;;19.25;13.10;;;;;;;1.13;70.30;97879.03;5105340;28;20043;-75
2022/12/11 04:34:23;;;;;;;17.08;11.38;;;;;;;1.15;70.52;97881.56;5105288;28;20040;-75
2022/12/11 04:36:51;;;;;;;18.25;13.13;;;;;;;1.13;70.49;97886.00;5105808;28;20061;-75
2022/12/11 04:39:17;;;;;;;16.90;12.07;;;;;;;1.11;70.57;97896.50;5105248;28;20092;-75
2022/12/11 04:41:44;;;;;;;19.02;13.57;;;;;;;1.10;70.91;97888.75;5105411;28;20044;-75
2022/12/11 04:44:11;;;;;;;21.70;14.48;;;;;;;0.91;70.88;97865.16;5106299;28;20044;-75
2022/12/11 04:46:38;;;;;;;18.73;12.30;;;;;;;1.08;71.06;97893.16;5106367;28;20215;-74
2022/12/11 04:49:05;;;;;;;18.20;13.30;;;;;;;1.08;71.19;97883.59;5106406;28;20052;-74
2022/12/11 04:51:33;;;;;;;20.50;12.88;;;;;;;1.09;71.32;97892.25;5104887;28;20055;-75
2022/12/11 04:53:59;;;;;;;18.48;12.88;;;;;;;1.09;71.49;97882.66;5106013;28;20040;-75
2022/12/11 04:56:26;;;;;;;16.15;11.15;;;;;;;1.06;71.54;97879.34;5105993;28;20048;-74
2022/12/11 04:58:53;;;;;;;19.95;12.85;;;;;;;1.05;71.62;97885.47;5106358;28;20291;-74
2022/12/11 05:01:22;;;;;;;20.40;12.63;;;;;;;1.05;71.72;97888.06;5106186;28;20094;-75
2022/12/11 05:03:49;;;;;;;17.05;12.35;;;;;;;1.04;71.76;97892.44;5106052;28;20043;-74
2022/12/11 05:06:16;;;;;;;19.67;13.82;;;;;;;0.47;71.84;97820.81;5104688;28;20040;-74
2022/12/11 05:08:45;;;;;;;20.17;13.57;;;;;;;0.99;72.28;97896.16;5105613;28;20057;-74
2022/12/11 05:11:14;;;;;;;16.77;11.50;;;;;;;0.96;72.54;97896.28;5105867;28;20051;-74
2022/12/11 05:13:41;;;;;;;16.77;12.80;;;;;;;0.92;72.80;97898.16;5104917;28;20051;-74
2022/12/11 05:16:10;;;;;;;17.30;12.27;;;;;;;0.91;72.83;97899.91;5105511;28;20078;-74
2022/12/11 05:18:38;;;;;;;16.00;11.18;;;;;;;0.31;72.96;97811.03;5105756;28;20056;-75
2022/12/11 05:21:07;;;;;;;19.23;12.73;;;;;;;0.89;73.47;97906.09;5105477;28;20369;-74
2022/12/11 05:23:34;;;;;;;17.10;10.85;;;;;;;0.89;73.71;97914.78;5105361;28;20044;-74
2022/12/11 05:26:05;;;;;;;16.58;12.00;;;;;;;0.78;73.75;97910.88;5104521;28;20204;-75
2022/12/11 05:28:34;;;;;;;17.70;12.50;;;;;;;0.81;73.91;97942.91;5105371;28;20044;-75
2022/12/11 05:31:04;;;;;;;17.35;12.57;;;;;;;0.82;74.05;97921.13;5104489;28;20043;-74
2022/12/11 05:33:31;;;;;;;15.23;11.55;;;;;;;0.82;73.95;97934.19;5105850;28;20296;-74
2022/12/11 05:35:58;;;;;;;17.40;12.25;;;;;;;0.78;74.04;97937.81;5105277;28;20347;-74
2022/12/11 05:38:25;;;;;;;18.38;11.27;;;;;;;0.13;74.21;97823.03;5105298;28;20216;-75
2022/12/11 05:40:58;;;;;;;15.05;11.20;;;;;;;0.77;74.18;97919.63;5105513;28;20055;-75
2022/12/11 05:43:28;;;;;;;15.02;11.43;;;;;;;0.76;74.39;97929.19;5104426;28;20055;-75
2022/12/11 05:45:56;;;;;;;16.45;12.63;;;;;;;0.75;74.43;97935.31;5105424;28;20109;-75
2022/12/11 05:48:22;;;;;;;17.38;12.32;;;;;;;0.53;74.39;97910.97;5104381;28;20079;-75
2022/12/11 05:50:59;;;;;;;14.90;11.60;;;;;;;0.72;74.66;97945.03;5105167;28;20051;-75
2022/12/11 05:53:26;;;;;;;13.95;10.70;;;;;;;0.73;74.38;97949.31;5105663;28;20044;-75
2022/12/11 05:55:53;;;;;;;15.45;11.38;;;;;;;0.71;74.43;97967.63;5108421;28;20055;-75
2022/12/11 05:58:20;;;;;;;15.68;10.75;;;;;;;0.70;74.33;97960.72;5109358;28;20051;-74
2022/12/11 06:00:48;;;;;;;17.15;10.60;;;;;;;0.67;74.43;97955.63;5108243;28;20044;-73
2022/12/11 06:03:15;;;;;;;17.10;11.93;;;;;;;0.68;74.60;97964.28;5108246;28;20300;-75
2022/12/11 06:05:43;;;;;;;15.65;11.27;;;;;;;0.65;74.26;97964.41;5109214;28;20093;-74
2022/12/11 06:08:10;;;;;;;15.32;11.70;;;;;;;0.61;74.39;97964.53;5109048;28;20089;-73
2022/12/11 06:10:37;;;;;;;14.73;10.20;;;;;;;0.62;74.57;97967.97;5108826;28;20052;-74
2022/12/11 06:13:04;;;;;;;14.07;10.35;;;;;;;0.61;74.33;97966.28;5109082;28;20036;-73
2022/12/11 06:15:31;;;;;;;13.90;11.18;;;;;;;0.64;74.24;97973.13;5108677;28;20146;-73
2022/12/11 06:18:01;;;;;;;14.00;10.52;;;;;;;0.61;74.20;97964.53;5107841;28;20082;-73
2022/12/11 06:20:31;;;;;;;15.98;11.18;;;;;;;0.23;73.92;97895.56;5108606;28;20278;-73
2022/12/11 06:22:57;;;;;;;14.55;11.52;;;;;;;0.62;73.78;97983.63;5107688;28;20048;-73
2022/12/11 06:25:24;;;;;;;14.50;10.57;;;;;;;0.59;73.47;97987.19;5108791;28;20040;-73
2022/12/11 06:27:51;;;;;;;12.98;9.65;;;;;;;0.58;73.32;97982.88;5107535;28;20040;-73
2022/12/11 06:30:18;;;;;;;16.25;10.32;;;;;;;0.59;73.20;97986.34;5107509;28;20142;-73
2022/12/11 06:32:44;;;;;;;13.32;10.55;;;;;;;0.59;72.60;97984.59;5108344;28;20051;-73
2022/12/11 06:35:13;;;;;;;13.95;9.77;;;;;;;0.57;72.35;97993.38;5107382;28;20052;-74
2022/12/11 06:37:40;;;;;;;13.45;10.15;;;;;;;0.55;72.22;97992.59;5108862;28;20048;-73
2022/12/11 06:40:10;;;;;;;14.38;10.73;;;;;;;0.56;72.35;98002.94;5107488;28;20101;-73
2022/12/11 06:42:36;;;;;;;14.27;10.10;;;;;;;0.35;72.00;97971.59;5107368;28;20229;-73
2022/12/11 06:45:04;;;;;;;14.02;10.10;;;;;;;0.55;72.05;98001.25;5108683;28;20051;-73
2022/12/11 06:47:32;;;;;;;15.02;9.85;;;;;;;0.60;71.71;98001.94;5108026;28;20288;-73
2022/12/11 06:49:58;;;;;;;13.43;9.02;;;;;;;0.60;71.52;97988.03;5108440;28;20040;-73
2022/12/11 06:52:27;;;;;;;14.68;9.85;;;;;;;-0.02;70.89;97894.75;5108312;28;20101;-73
2022/12/11 06:54:54;;;;;;;15.88;10.65;;;;;;;0.56;70.94;97991.66;5107911;28;20036;-74
2022/12/11 06:57:21;;;;;;;13.82;8.63;;;;;;;0.55;70.57;98003.00;5107786;28;20040;-74
2022/12/11 06:59:48;;;;;;;13.48;10.07;;;;;;;0.50;70.26;98000.56;5108120;28;20059;-73
2022/12/11 07:02:16;;;;;;;13.13;9.85;;;;;;;0.52;70.53;98013.53;5108307;28;20093;-73
2022/12/11 07:04:43;;;;;;;11.30;8.95;;;;;;;0.34;70.31;98002.03;5107726;28;20357;-73
2022/12/11 07:07:10;;;;;;;11.88;9.10;;;;;;;0.50;70.31;98016.22;5106428;28;20040;-73
2022/12/11 07:09:40;;;;;;;11.00;8.35;;;;;;;0.50;69.82;98025.78;5106741;28;20306;-73
2022/12/11 07:12:08;;;;;;;12.20;8.57;;;;;;;0.50;70.08;98031.00;5107963;28;20223;-74
2022/12/11 07:14:34;;;;;;;12.95;9.90;;;;;;;0.51;70.09;98035.31;5107600;28;20050;-74
2022/12/11 07:17:01;;;;;;;11.25;8.65;;;;;;;0.49;70.00;98037.97;5107516;28;20306;-73
2022/12/11 07:19:28;;;;;;;11.13;8.93;;;;;;;0.49;69.93;98042.34;5108059;28;20036;-74
2022/12/11 07:21:55;;;;;;;14.55;9.23;;;;;;;0.49;69.96;98047.53;5107480;28;20052;-73
2022/12/11 07:24:22;;;;;;;13.68;9.73;;;;;;;0.25;70.02;97999.75;5107685;28;20097;-74
2022/12/11 07:26:51;;;;;;;14.82;9.52;;;;;;;0.52;70.01;98039.63;5106490;28;20044;-73
2022/12/11 07:29:18;;;;;;;14.13;9.63;;;;;;;0.51;69.86;98038.75;5107889;28;20352;-73
2022/12/11 07:31:45;;;;;;;11.15;9.02;;;;;;;0.49;69.52;98034.50;5106450;28;20044;-73
2022/12/11 07:34:13;;;;;;;13.73;9.60;;;;;;;0.49;69.69;98039.72;5107233;28;20226;-73
2022/12/11 07:36:40;;;;;;;10.57;8.50;;;;;;;0.49;69.65;98032.75;5106891;28;20071;-74
2022/12/11 07:39:07;;;;;;;13.30;10.70;;;;;;;0.52;69.81;98034.41;5106966;28;20040;-73
2022/12/11 07:41:34;;;;;;;14.80;9.43;;;;;;;0.51;69.75;98043.97;5107314;28;20103;-73
2022/12/11 07:44:03;;;;;;;15.25;10.52;;;;;;;0.51;69.66;98043.97;5106144;28;20327;-74
2022/12/11 07:46:32;;;;;;;15.60;10.57;;;;;;;0.52;69.55;98034.41;5107415;28;20052;-73
2022/12/11 07:48:59;;;;;;;14.00;8.65;;;;;;;0.52;69.41;98029.19;5106983;28;20051;-74
2022/12/11 07:51:28;;;;;;;12.38;8.70;;;;;;;0.53;69.39;98036.09;5106083;28;20189;-74
2022/12/11 07:53:57;;;;;;;13.85;10.40;;;;;;;0.55;69.42;98031.69;5106800;28;20040;-73
2022/12/11 07:56:24;;;;;;;13.32;10.23;;;;;;;0.55;69.22;98034.28;5105798;28;20043;-73
2022/12/11 07:58:51;;;;;;;13.07;9.90;;;;;;;0.54;69.36;98027.38;5106948;28;20105;-73
2022/12/11 08:01:21;;;;;;;12.90;9.35;;;;;;;0.54;69.17;98036.06;5106723;28;20093;-73
2022/12/11 08:03:49;;;;;;;12.48;9.60;;;;;;;-0.63;69.32;97829.25;5106667;28;20044;-74
2022/12/11 08:06:17;;;;;;;12.05;9.43;;;;;;;-0.24;69.05;97892.06;5106907;28;20052;-73
2022/12/11 08:08:44;;;;;;;12.70;9.00;;;;;;;0.57;68.96;98025.50;5105618;28;20055;-74
2022/12/11 08:11:14;;;;;;;12.73;9.07;;;;;;;0.60;69.09;98030.63;5106744;28;20055;-73
2022/12/11 08:13:43;;;;;;;10.50;8.82;;;;;;;0.64;68.86;98027.91;5106967;28;20063;-74
2022/12/11 08:16:11;;;;;;;12.70;9.23;;;;;;;0.66;68.80;98026.94;5105480;28;20118;-74
2022/12/11 08:18:41;;;;;;;12.05;9.48;;;;;;;0.68;68.76;98026.88;5105772;28;20036;-73
2022/12/11 08:21:09;;;;;;;13.40;9.98;;;;;;;-6.75;68.15;97166.31;5106573;28;20052;-73
2022/12/11 08:23:36;;;;;;;12.50;9.30;;;;;;;-0.25;68.64;97876.50;5106323;28;20040;-73
2022/12/11 08:26:04;;;;;;;13.23;8.90;;;;;;;0.73;68.58;98033.63;5106393;28;20040;-74
2022/12/11 08:28:31;;;;;;;11.77;9.18;;;;;;;0.31;68.19;97983.03;5105259;28;20044;-74
2022/12/11 08:30:58;;;;;;;11.73;9.15;;;;;;;0.77;68.53;98037.81;5106150;28;20040;-74
2022/12/11 08:33:24;;;;;;;12.32;9.52;;;;;;;0.78;68.25;98034.31;5106165;28;20040;-74
2022/12/11 08:35:52;;;;;;;10.65;9.10;;;;;;;0.82;68.25;98038.50;5105960;28;20060;-74
2022/12/11 08:38:19;;;;;;;13.90;10.38;;;;;;;0.86;68.53;98053.13;5105154;28;20044;-74
2022/12/11 08:40:46;;;;;;;10.52;8.73;;;;;;;0.87;68.52;98051.38;5105984;28;20036;-74
2022/12/11 08:43:13;;;;;;;12.23;9.32;;;;;;;0.97;68.07;98067.53;5106190;28;20044;-74
2022/12/11 08:45:39;;;;;;;10.43;8.20;;;;;;;1.02;67.91;98061.25;5105875;28;20055;-74
2022/12/11 08:48:06;;;;;;;10.63;7.93;;;;;;;1.14;67.69;98075.59;5105791;28;20039;-74
2022/12/11 08:50:33;;;;;;;12.15;8.57;;;;;;;1.25;67.25;98076.88;5106051;28;20093;-74
2022/12/11 08:53:01;;;;;;;11.93;8.98;;;;;;;1.25;66.63;98053.41;5106061;28;20116;-75
2022/12/11 08:55:28;;;;;;;11.77;9.13;;;;;;;1.46;66.66;98077.81;5105766;28;20161;-75
2022/12/11 08:57:55;;;;;;;11.38;9.15;;;;;;;-0.29;66.29;97776.84;5071830;28;20040;-74
2022/12/11 09:00:22;;;;;;;12.00;8.55;;;;;;;1.61;66.19;98075.56;5105029;28;20327;-74
2022/12/11 09:02:48;;;;;;;11.30;8.70;;;;;;;1.69;66.07;98069.13;5104852;28;20064;-75
2022/12/11 09:05:15;;;;;;;10.50;9.15;;;;;;;1.80;65.99;98066.91;5105691;28;20087;-75
2022/12/11 09:07:42;;;;;;;12.48;9.25;;;;;;;1.93;66.03;98054.22;5104797;28;20040;-75
2022/12/11 09:10:10;;;;;;;13.15;9.68;;;;;;;-13.74;64.31;95879.38;5105858;28;20101;-75
2022/12/11 09:12:37;;;;;;;10.32;8.63;;;;;;;2.18;65.12;98057.50;5104727;28;20048;-75
2022/12/11 09:15:05;;;;;;;11.20;8.63;;;;;;;2.31;64.61;98054.38;5105520;28;20044;-73
2022/12/11 09:17:31;;;;;;;12.75;8.63;;;;;;;2.36;64.60;98048.03;5105943;28;20105;-73
2022/12/11 09:19:58;;;;;;;11.43;9.35;;;;;;;2.38;64.08;98045.34;5105914;28;20043;-73
2022/12/11 09:22:25;;;;;;;11.65;9.13;;;;;;;2.43;64.09;98053.84;5105539;28;20109;-75
2022/12/11 09:24:52;;;;;;;11.27;8.45;;;;;;;2.51;64.22;98041.28;5105372;28;20162;-75
2022/12/11 09:27:21;;;;;;;11.82;9.13;;;;;;;2.61;64.01;98042.59;5104433;28;20292;-75
2022/12/11 09:29:48;;;;;;;10.73;8.23;;;;;;;2.73;63.94;98039.44;5105557;28;20063;-75
2022/12/11 09:32:15;;;;;;;12.25;8.60;;;;;;;2.84;63.56;98034.56;5109807;28;20074;-74
2022/12/11 09:34:42;;;;;;;11.07;8.88;;;;;;;2.96;63.21;98033.16;5109229;28;20046;-75
2022/12/11 09:37:08;;;;;;;11.65;8.45;;;;;;;2.97;62.96;98023.53;5108692;28;20047;-75
2022/12/11 09:39:35;;;;;;;11.30;8.65;;;;;;;3.01;62.88;98027.72;5109691;28;20215;-75
2022/12/11 09:42:08;;;;;;;11.07;8.55;;;;;;;3.03;62.35;98021.50;5109287;28;20043;-75
2022/12/11 09:44:42;;;;;;;11.65;8.60;;;;;;;3.18;61.42;98015.53;5109279;28;20113;-75
2022/12/11 09:47:20;;;;;;;10.27;8.15;;;;;;;3.33;59.53;98006.13;5108388;28;20085;-75
2022/12/11 09:49:49;;;;;;;11.00;8.73;;;;;;;3.41;61.96;98016.25;5109244;28;20189;-73
2022/12/11 09:52:20;;;;;;;10.80;8.27;;;;;;;2.72;61.14;97885.16;5108245;28;20307;-73
2022/12/11 09:54:50;;;;;;;10.85;8.38;;;;;;;3.57;60.83;98021.59;5108036;28;20056;-73
2022/12/11 09:57:42;;;;;;;10.98;8.40;;;;;;;3.64;57.46;98008.13;5109168;28;20036;-74
2022/12/11 10:00:33;;;;;;;9.77;8.15;;;;;;;0.13;56.50;97422.69;5109228;28;20064;-73
2022/12/11 10:03:22;;;;;;;10.73;8.30;;;;;;;3.63;57.58;98006.44;5108916;28;20050;-73
2022/12/11 10:05:58;;;;;;;10.63;8.18;;;;;;;3.66;58.86;98001.03;5108327;28;20042;-73
2022/12/11 10:08:32;;;;;;;9.82;7.53;;;;;;;3.53;58.15;97971.97;5109064;28;20035;-73
2022/12/11 10:11:16;;;;;;;8.83;7.27;;;;;;;3.79;56.73;97988.19;5107982;28;20051;-73
2022/12/11 10:13:54;;;;;;;9.32;7.00;;;;;;;3.86;57.76;97992.19;5107881;28;20036;-74
2022/12/11 10:16:36;;;;;;;10.98;8.00;;;;;;;3.93;56.62;97988.34;5108983;28;20056;-73
2022/12/11 10:19:03;;;;;;;10.27;7.95;;;;;;;4.01;59.38;97995.81;5108295;28;20032;-73
2022/12/11 10:21:38;;;;;;;9.43;7.60;;;;;;;4.09;56.12;97988.41;5107870;28;20215;-74
2022/12/11 10:24:14;;;;;;;10.13;7.60;;;;;;;4.19;56.75;97989.66;5107837;28;20032;-73
2022/12/11 10:26:42;;;;;;;10.07;7.40;;;;;;;3.96;58.28;97940.16;5109497;28;20056;-75
2022/12/11 10:29:14;;;;;;;11.93;7.97;;;;;;;4.43;56.42;97992.81;5108282;28;20036;-73
2022/12/11 10:31:50;;;;;;;12.45;8.70;;;;;;;4.61;56.79;97989.22;5107400;28;20294;-73
2022/12/11 10:34:26;;;;;;;9.18;7.25;;;;;;;4.66;54.96;97973.25;5107496;28;20077;-73
2022/12/11 10:36:54;;;;;;;9.00;7.40;;;;;;;4.57;56.79;97977.19;5107470;28;20189;-74
2022/12/11 10:39:22;;;;;;;9.57;7.85;;;;;;;3.89;57.71;97889.81;5107728;28;20063;-74
2022/12/11 10:41:51;;;;;;;9.23;7.35;;;;;;;4.35;57.35;97974.00;5108110;28;20046;-75
2022/12/11 10:44:20;;;;;;;10.23;8.35;;;;;;;4.08;57.77;97950.03;5108668;28;20089;-74
2022/12/11 10:47:01;;;;;;;9.10;7.03;;;;;;;3.48;56.68;97879.66;5108682;28;20303;-74
2022/12/11 10:49:30;;;;;;;10.90;7.53;;;;;;;3.94;57.59;97984.78;5108152;28;20047;-74
2022/12/11 10:52:00;;;;;;;9.25;6.90;;;;;;;3.79;58.08;97996.03;5107440;28;20123;-75
2022/12/11 10:54:33;;;;;;;10.70;8.63;;;;;;;3.69;56.39;97986.94;5107243;28;20208;-74
2022/12/11 10:57:02;;;;;;;10.80;8.48;;;;;;;3.67;58.54;97980.91;5107194;28;20051;-75
2022/12/11 10:59:34;;;;;;;12.07;8.98;;;;;;;3.60;57.09;97972.50;5107051;28;20039;-74
2022/12/11 11:02:04;;;;;;;9.52;7.00;;;;;;;3.60;58.05;97974.28;5108144;28;20048;-74
2022/12/11 11:04:35;;;;;;;9.88;7.80;;;;;;;3.59;58.59;97986.53;5108424;28;20086;-74
2022/12/11 11:07:11;;;;;;;8.90;7.30;;;;;;;3.59;57.46;97980.44;5108218;28;20055;-74
2022/12/11 11:09:38;;;;;;;10.15;8.10;;;;;;;3.50;58.34;97977.34;5107322;28;20059;-74
2022/12/11 11:12:18;;;;;;;9.75;8.20;;;;;;;3.43;55.64;97973.34;5106706;28;20131;-74
2022/12/11 11:14:45;;;;;;;11.05;8.20;;;;;;;3.41;58.17;97975.19;5108339;28;20044;-74
2022/12/11 11:17:15;;;;;;;9.85;8.18;;;;;;;3.33;57.08;97960.75;5107202;28;20357;-74
2022/12/11 11:19:47;;;;;;;10.18;8.05;;;;;;;3.25;56.57;97965.50;5106647;28;20304;-75
2022/12/11 11:22:17;;;;;;;10.95;8.32;;;;;;;2.93;58.01;97940.84;5107770;28;20052;-75
2022/12/11 11:24:45;;;;;;;9.60;7.63;;;;;;;3.10;58.46;97980.19;5107763;28;20036;-74
2022/12/11 11:27:15;;;;;;;9.13;7.32;;;;;;;3.07;58.32;97973.31;5107706;28;20067;-74
2022/12/11 11:29:43;;;;;;;11.15;8.95;;;;;;;3.08;58.38;97977.63;5107346;28;20044;-74
2022/12/11 11:32:21;;;;;;;10.43;8.65;;;;;;;3.07;56.27;97978.56;5106475;28;20036;-74
2022/12/11 11:34:47;;;;;;;10.52;9.13;;;;;;;3.10;58.50;97977.56;5106742;28;20085;-74
2022/12/11 11:37:30;;;;;;;9.02;7.10;;;;;;;3.14;56.16;97973.88;5107484;28;20213;-74
2022/12/11 11:40:03;;;;;;;10.30;8.20;;;;;;;2.99;57.91;97954.50;5107129;28;20086;-75
2022/12/11 11:42:41;;;;;;;10.10;7.78;;;;;;;3.15;56.39;97973.81;5106228;28;20115;-75
2022/12/11 11:45:15;;;;;;;9.45;8.05;;;;;;;3.17;57.61;97961.50;5107366;28;20054;-75
2022/12/11 11:47:52;;;;;;;10.05;7.60;;;;;;;3.10;56.35;97972.31;5106906;28;20097;-75
2022/12/11 11:50:24;;;;;;;8.57;6.82;;;;;;;3.05;57.67;97979.53;5107206;28;20040;-74